Time;durP1;ratioP1;P1;durP2;ratioP2;P2;SDS_P1;SDS_P2;PMS_P1;PMS_P2;Temp;Humidity;BMP_temperature;BMP_pressure;BME280_temperature;BME280_humidity;BME280_pressure;Samples;Min_cycle;Max_cycle;Signal;HPM_P1;HPM_P2
2022/09/04 00:02:03;;;;;;;6.73;4.73;;;17.50;99.90;;;;;;6146518;23;20380;-84
2022/09/04 00:04:37;;;;;;;6.53;5.03;;;17.50;99.90;;;;;;6140632;23;20439;-85
2022/09/04 00:07:16;;;;;;;6.80;4.97;;;17.50;99.90;;;;;;6128313;23;20483;-87
2022/09/04 00:09:54;;;;;;;4.10;3.70;;;17.50;99.90;;;;;;6132403;23;20420;-86
2022/09/04 00:12:25;;;;;;;5.00;4.60;;;17.40;99.90;;;;;;6126841;23;20400;-86
2022/09/04 00:14:58;;;;;;;5.53;4.87;;;17.40;99.90;;;;;;6128148;23;20390;-84
2022/09/04 00:17:29;;;;;;;6.90;6.30;;;17.40;99.90;;;;;;6149693;23;20442;-85
2022/09/04 00:20:00;;;;;;;6.13;5.53;;;17.40;99.90;;;;;;6129601;23;20930;-86
2022/09/04 00:22:33;;;;;;;5.90;5.17;;;17.40;99.90;;;;;;6125055;23;20487;-86
2022/09/04 00:25:11;;;;;;;6.07;4.97;;;17.40;99.90;;;;;;6145390;23;20445;-85
2022/09/04 00:27:44;;;;;;;5.70;5.20;;;17.40;99.90;;;;;;6138057;23;20428;-86
2022/09/04 00:30:15;;;;;;;7.43;5.90;;;17.40;99.90;;;;;;6128319;23;20424;-86
2022/09/04 00:32:47;;;;;;;10.83;5.50;;;17.40;99.90;;;;;;6126554;23;20479;-86
2022/09/04 00:35:16;;;;;;;7.53;5.37;;;17.30;99.90;;;;;;6128010;23;20392;-86
2022/09/04 00:37:49;;;;;;;8.90;6.30;;;17.20;99.90;;;;;;6127539;23;20435;-86
2022/09/04 00:40:25;;;;;;;6.17;5.67;;;17.30;99.90;;;;;;6125845;23;20502;-85
2022/09/04 00:43:22;;;;;;;6.90;6.10;;;17.20;99.90;;;;;;6126445;23;20392;-85
2022/09/04 00:46:12;;;;;;;7.00;6.30;;;17.20;99.90;;;;;;6127723;23;20432;-85
2022/09/04 00:49:07;;;;;;;7.37;6.70;;;17.20;99.90;;;;;;6133329;23;20763;-85
2022/09/04 00:51:43;;;;;;;7.00;6.30;;;17.20;99.90;;;;;;6125829;23;20392;-86
2022/09/04 00:54:36;;;;;;;7.90;6.73;;;17.10;99.90;;;;;;6124792;23;20396;-86
2022/09/04 00:57:43;;;;;;;12.00;7.37;;;17.10;99.90;;;;;;6124239;23;20432;-86
2022/09/04 01:00:14;;;;;;;8.20;6.60;;;17.10;99.90;;;;;;6125392;23;20418;-86
2022/09/04 01:02:57;;;;;;;7.00;6.30;;;17.10;99.90;;;;;;6124344;23;20813;-86
2022/09/04 01:05:37;;;;;;;7.20;6.20;;;17.10;99.90;;;;;;6123476;23;20440;-86
2022/09/04 01:08:15;;;;;;;6.90;6.20;;;17.10;99.90;;;;;;6124255;23;20545;-86
2022/09/04 01:10:51;;;;;;;7.87;7.17;;;17.00;99.90;;;;;;6124307;23;20730;-86
2022/09/04 01:13:32;;;;;;;8.20;7.43;;;17.00;99.90;;;;;;6125788;23;20482;-86
2022/09/04 01:16:07;;;;;;;7.10;6.40;;;17.00;99.90;;;;;;6127054;23;20479;-86
2022/09/04 01:18:42;;;;;;;7.13;6.40;;;17.00;99.90;;;;;;6126979;23;20494;-86
2022/09/04 01:21:47;;;;;;;6.17;5.57;;;17.00;99.90;;;;;;6126803;23;20395;-86
2022/09/04 01:24:38;;;;;;;8.77;6.47;;;17.00;99.90;;;;;;6126437;23;20886;-87
2022/09/04 01:27:09;;;;;;;7.67;6.70;;;17.00;99.90;;;;;;6149927;23;20416;-83
2022/09/04 01:29:48;;;;;;;7.47;6.60;;;16.90;99.90;;;;;;6151126;23;20387;-84
2022/09/04 01:32:28;;;;;;;8.63;7.40;;;16.90;99.90;;;;;;6127967;23;20714;-84
2022/09/04 01:35:05;;;;;;;7.97;7.10;;;16.90;99.90;;;;;;6126753;23;20419;-86
2022/09/04 01:37:46;;;;;;;8.67;7.23;;;16.90;99.90;;;;;;6126594;23;20443;-86
2022/09/04 01:40:25;;;;;;;8.60;6.97;;;16.90;99.90;;;;;;6127032;23;20471;-86
2022/09/04 01:42:57;;;;;;;9.87;7.80;;;16.90;99.90;;;;;;6126188;23;20718;-86
2022/09/04 01:45:36;;;;;;;7.50;6.63;;;16.90;99.90;;;;;;6126757;23;20487;-86
2022/09/04 01:48:09;;;;;;;9.63;8.60;;;16.90;99.90;;;;;;6126791;23;20431;-86
2022/09/04 01:50:38;;;;;;;8.50;7.63;;;16.80;99.90;;;;;;6127167;23;20488;-85
2022/09/04 01:53:11;;;;;;;7.37;6.67;;;16.80;99.90;;;;;;6131654;23;20400;-85
2022/09/04 01:55:46;;;;;;;11.50;7.63;;;16.80;99.90;;;;;;6135918;23;20954;-86
2022/09/04 01:58:25;;;;;;;8.70;7.80;;;16.80;99.90;;;;;;6141210;23;20519;-85
2022/09/04 02:00:58;;;;;;;10.03;7.17;;;16.80;99.90;;;;;;6143491;23;20432;-86
2022/09/04 02:03:38;;;;;;;9.60;7.90;;;16.80;99.90;;;;;;6153819;23;20376;-85
2022/09/04 02:06:21;;;;;;;9.50;8.57;;;16.80;99.90;;;;;;6138937;23;20500;-86
2022/09/04 02:09:14;;;;;;;11.03;8.17;;;16.80;99.90;;;;;;6150974;23;20401;-83
2022/09/04 02:11:50;;;;;;;10.90;8.77;;;16.70;99.90;;;;;;6153773;23;20385;-83
2022/09/04 02:14:32;;;;;;;9.30;8.37;;;16.70;99.90;;;;;;6153942;23;20384;-84
2022/09/04 02:17:09;;;;;;;9.83;8.83;;;16.70;99.90;;;;;;6144811;23;20503;-87
2022/09/04 02:19:47;;;;;;;9.10;8.20;;;16.70;99.90;;;;;;6131437;23;20400;-87
2022/09/04 02:22:24;;;;;;;10.73;9.23;;;16.70;99.90;;;;;;6127583;23;20483;-85
2022/09/04 02:25:00;;;;;;;10.83;8.73;;;16.70;99.90;;;;;;6125812;23;20403;-87
2022/09/04 02:27:33;;;;;;;12.30;9.17;;;16.70;99.90;;;;;;6126143;23;20807;-86
2022/09/04 02:30:03;;;;;;;10.77;9.77;;;16.70;99.90;;;;;;6126240;23;20391;-87
2022/09/04 02:32:36;;;;;;;10.00;8.93;;;16.70;99.90;;;;;;6126866;23;20430;-86
2022/09/04 02:35:09;;;;;;;9.57;8.60;;;16.60;99.90;;;;;;6138930;23;20737;-86
2022/09/04 02:37:45;;;;;;;9.33;8.53;;;16.60;99.90;;;;;;6126151;23;20436;-84
2022/09/04 02:40:18;;;;;;;10.50;9.40;;;16.60;99.90;;;;;;6128248;23;20714;-85
2022/09/04 02:43:00;;;;;;;11.00;9.30;;;16.50;99.90;;;;;;6136971;23;20399;-85
2022/09/04 02:45:36;;;;;;;9.43;8.57;;;16.50;99.90;;;;;;6155008;23;20416;-84
2022/09/04 02:48:12;;;;;;;12.20;9.90;;;16.50;99.90;;;;;;6155155;23;20411;-86
2022/09/04 02:50:50;;;;;;;10.67;9.67;;;16.50;99.90;;;;;;6154415;23;20380;-86
2022/09/04 02:53:28;;;;;;;10.13;9.23;;;16.50;99.90;;;;;;6152440;23;20385;-86
2022/09/04 02:56:24;;;;;;;11.23;10.07;;;16.60;99.90;;;;;;6150867;23;20377;-87
2022/09/04 02:59:06;;;;;;;9.87;8.87;;;16.60;99.90;;;;;;6151914;23;20397;-86
2022/09/04 03:01:44;;;;;;;9.63;8.63;;;16.60;99.90;;;;;;6143276;23;20428;-87
2022/09/04 03:04:16;;;;;;;10.73;9.73;;;16.50;99.90;;;;;;6125775;23;20396;-87
2022/09/04 03:06:49;;;;;;;10.27;9.27;;;16.50;99.90;;;;;;6124567;23;20432;-85
2022/09/04 03:09:23;;;;;;;10.50;9.40;;;16.50;99.90;;;;;;6125249;23;20388;-86
2022/09/04 03:11:56;;;;;;;11.20;10.20;;;16.60;99.90;;;;;;6124753;23;20698;-87
2022/09/04 03:14:33;;;;;;;15.83;9.10;;;16.50;99.90;;;;;;6124980;23;20400;-87
2022/09/04 03:17:19;;;;;;;10.07;8.93;;;16.50;99.90;;;;;;6124733;23;20434;-85
2022/09/04 03:19:51;;;;;;;11.50;8.70;;;16.40;99.90;;;;;;6124214;23;20392;-86
2022/09/04 03:22:23;;;;;;;10.07;9.17;;;16.50;99.90;;;;;;6124696;23;20396;-87
2022/09/04 03:25:12;;;;;;;10.17;9.20;;;16.40;99.90;;;;;;6125612;23;20421;-87
2022/09/04 03:27:39;;;;;;;9.03;8.23;;;16.40;99.90;;;;;;6130158;23;20459;-86
2022/09/04 03:30:09;;;;;;;10.97;9.13;;;16.40;99.90;;;;;;6126465;23;20415;-86
2022/09/04 03:32:47;;;;;;;11.53;9.70;;;16.30;99.90;;;;;;6125864;23;20495;-86
2022/09/04 03:35:22;;;;;;;9.93;8.77;;;16.30;99.90;;;;;;6124793;23;20393;-86
2022/09/04 03:38:00;;;;;;;9.90;9.00;;;16.30;99.90;;;;;;6123602;23;20837;-86
2022/09/04 03:40:36;;;;;;;10.50;9.00;;;16.30;99.90;;;;;;6124333;23;20397;-86
2022/09/04 03:43:15;;;;;;;10.60;9.60;;;16.30;99.90;;;;;;6124204;23;20880;-87
2022/09/04 03:45:49;;;;;;;10.50;9.50;;;16.20;99.90;;;;;;6126050;23;21260;-87
2022/09/04 03:48:27;;;;;;;9.37;8.57;;;16.20;99.90;;;;;;6144878;23;20421;-86
2022/09/04 03:50:58;;;;;;;10.43;9.43;;;16.10;99.90;;;;;;6153471;23;20377;-85
2022/09/04 03:53:31;;;;;;;9.67;8.73;;;16.10;99.90;;;;;;6152328;23;20376;-86
2022/09/04 03:56:31;;;;;;;10.10;9.20;;;16.10;99.90;;;;;;6147463;23;20401;-86
2022/09/04 03:59:03;;;;;;;9.47;8.57;;;16.10;99.90;;;;;;6133617;23;20389;-86
2022/09/04 04:01:40;;;;;;;9.63;8.73;;;16.10;99.90;;;;;;6129616;23;20399;-86
2022/09/04 04:04:41;;;;;;;10.13;9.13;;;16.10;99.90;;;;;;6148301;23;20391;-86
2022/09/04 04:07:16;;;;;;;10.90;9.53;;;16.10;99.90;;;;;;6103980;23;20482;-86
2022/09/04 04:09:59;;;;;;;10.73;9.63;;;16.10;99.90;;;;;;6126856;23;20487;-87
2022/09/04 04:12:55;;;;;;;9.60;8.60;;;16.00;99.90;;;;;;6135935;23;20397;-85
2022/09/04 04:15:32;;;;;;;10.77;9.67;;;16.00;99.90;;;;;;6149246;23;20423;-85
2022/09/04 04:18:17;;;;;;;10.20;9.20;;;16.00;99.90;;;;;;6128982;23;20424;-86
2022/09/04 04:20:55;;;;;;;11.70;10.47;;;16.00;99.90;;;;;;6125404;23;20392;-86
2022/09/04 04:23:45;;;;;;;11.10;10.10;;;15.90;99.90;;;;;;6131732;23;20396;-87
2022/09/04 04:26:21;;;;;;;15.67;11.20;;;15.90;99.90;;;;;;6132819;23;20764;-86
2022/09/04 04:29:24;;;;;;;11.87;10.77;;;15.90;99.90;;;;;;6125495;23;20482;-86
2022/09/04 04:32:12;;;;;;;11.10;10.10;;;15.90;99.90;;;;;;6070650;23;20418;-86
2022/09/04 04:34:54;;;;;;;10.57;9.57;;;15.90;99.90;;;;;;6126536;23;20506;-86
2022/09/04 04:37:31;;;;;;;11.57;10.47;;;15.80;99.90;;;;;;6126094;23;20432;-86
2022/09/04 04:40:05;;;;;;;11.23;9.27;;;15.80;99.90;;;;;;6125757;23;20384;-85
2022/09/04 04:42:39;;;;;;;10.20;9.20;;;15.80;99.90;;;;;;6126382;23;20397;-85
2022/09/04 04:48:42;;;;;;;12.40;10.80;;;15.80;99.90;;;;;;6153882;23;20405;-85
2022/09/04 04:51:39;;;;;;;11.40;9.60;;;15.80;99.90;;;;;;6085306;23;20416;-85
2022/09/04 04:54:21;;;;;;;12.40;11.20;;;15.80;99.90;;;;;;6146197;23;20401;-86
2022/09/04 04:56:57;;;;;;;14.83;11.00;;;15.70;99.90;;;;;;6132580;23;20495;-87
2022/09/04 04:59:30;;;;;;;12.23;11.03;;;15.80;99.90;;;;;;6129243;23;20844;-87
2022/09/04 05:02:09;;;;;;;11.87;10.70;;;15.80;99.90;;;;;;6128595;23;20396;-86
2022/09/04 05:04:44;;;;;;;12.93;10.17;;;15.80;99.90;;;;;;6128705;23;20392;-87
2022/09/04 05:07:21;;;;;;;10.27;9.27;;;15.80;99.90;;;;;;6126943;23;20478;-87
2022/09/04 05:09:56;;;;;;;12.60;10.43;;;15.80;99.90;;;;;;6127048;23;20381;-87
2022/09/04 05:12:32;;;;;;;11.57;10.47;;;15.90;99.90;;;;;;6127002;23;20411;-87
2022/09/04 05:15:06;;;;;;;11.43;10.33;;;15.90;99.90;;;;;;6127695;23;20395;-86
2022/09/04 05:17:40;;;;;;;10.07;9.07;;;15.90;99.90;;;;;;6127018;23;20512;-87
2022/09/04 05:20:29;;;;;;;11.00;9.90;;;15.90;99.90;;;;;;6126887;23;20420;-86
2022/09/04 05:23:05;;;;;;;10.50;9.47;;;15.90;99.90;;;;;;6127810;23;20399;-87
2022/09/04 05:25:41;;;;;;;10.53;9.60;;;15.80;99.90;;;;;;6147150;23;20392;-86
2022/09/04 05:28:19;;;;;;;10.33;9.20;;;15.80;99.90;;;;;;6153013;23;20433;-86
2022/09/04 05:30:52;;;;;;;9.53;8.63;;;15.80;99.90;;;;;;6147802;23;20400;-87
2022/09/04 05:33:31;;;;;;;9.50;8.60;;;15.80;99.90;;;;;;6153806;23;20388;-86
2022/09/04 05:36:05;;;;;;;9.20;8.37;;;15.80;99.90;;;;;;6152218;23;20518;-86
2022/09/04 05:38:40;;;;;;;9.13;8.33;;;15.80;99.90;;;;;;6143968;23;20931;-87
2022/09/04 05:41:19;;;;;;;8.53;7.83;;;15.80;99.90;;;;;;6128767;23;20395;-87
2022/09/04 05:44:07;;;;;;;8.60;7.90;;;15.80;99.90;;;;;;6127326;23;20411;-87
2022/09/04 05:46:54;;;;;;;8.90;8.10;;;15.80;99.90;;;;;;6127350;23;20436;-87
2022/09/04 05:49:42;;;;;;;9.23;8.43;;;15.80;99.90;;;;;;6127134;23;20400;-87
2022/09/04 05:52:43;;;;;;;8.90;8.00;;;15.80;99.90;;;;;;6127568;23;20381;-86
2022/09/04 05:55:42;;;;;;;7.93;6.90;;;15.90;99.90;;;;;;6046099;23;20411;-87
2022/09/04 05:58:27;;;;;;;8.73;7.93;;;15.90;99.90;;;;;;6127418;23;20542;-87
2022/09/04 06:01:04;;;;;;;8.57;7.77;;;15.90;99.90;;;;;;6127078;23;20392;-87
2022/09/04 06:04:00;;;;;;;7.30;6.60;;;15.90;99.90;;;;;;6128828;23;20424;-87
2022/09/04 06:06:36;;;;;;;7.33;6.67;;;15.90;99.90;;;;;;6120003;23;20443;-87
2022/09/04 06:09:19;;;;;;;8.03;7.27;;;16.00;99.90;;;;;;6153460;23;20392;-84
2022/09/04 06:11:59;;;;;;;7.10;6.47;;;16.00;99.90;;;;;;6154642;23;20404;-86
2022/09/04 06:14:40;;;;;;;7.37;6.67;;;16.10;99.90;;;;;;6147504;23;20400;-87
2022/09/04 06:17:22;;;;;;;7.10;6.40;;;16.10;99.90;;;;;;6142532;23;20448;-87
2022/09/04 06:20:01;;;;;;;8.53;6.67;;;16.20;99.90;;;;;;6134326;23;20400;-87
2022/09/04 06:22:48;;;;;;;7.33;6.53;;;16.30;99.90;;;;;;6128906;23;20389;-87
2022/09/04 06:25:39;;;;;;;6.83;5.93;;;16.40;99.90;;;;;;6127661;23;20404;-87
2022/09/04 06:28:19;;;;;;;7.00;6.40;;;16.50;99.90;;;;;;6127257;23;20455;-87
2022/09/04 06:30:55;;;;;;;6.90;6.30;;;16.60;99.90;;;;;;6129608;23;20439;-88
2022/09/04 06:33:32;;;;;;;6.13;5.53;;;16.80;99.90;;;;;;6144870;23;20424;-86
2022/09/04 06:36:27;;;;;;;6.33;5.80;;;17.00;99.90;;;;;;6127741;23;20412;-86
2022/09/04 06:39:08;;;;;;;6.77;6.17;;;17.30;99.90;;;;;;6143305;23;20385;-86
2022/09/04 06:41:52;;;;;;;5.80;5.20;;;17.50;99.90;;;;;;6137164;23;20863;-87
2022/09/04 06:44:31;;;;;;;4.97;4.40;;;17.70;99.90;;;;;;6128068;23;20380;-87
2022/09/04 06:47:12;;;;;;;5.47;5.00;;;18.00;99.90;;;;;;6131682;23;20456;-86
2022/09/04 06:49:53;;;;;;;5.50;5.00;;;18.30;99.90;;;;;;6135707;23;20400;-87
2022/09/04 06:52:29;;;;;;;5.27;4.70;;;18.50;99.90;;;;;;6145421;23;20392;-87
2022/09/04 06:55:00;;;;;;;6.00;5.30;;;18.80;99.90;;;;;;6154336;23;20388;-86
2022/09/04 06:57:50;;;;;;;6.40;4.90;;;19.00;99.90;;;;;;6153413;23;20431;-88
2022/09/04 07:00:20;;;;;;;5.10;4.70;;;19.30;99.90;;;;;;6151252;23;20389;-87
2022/09/04 07:03:15;;;;;;;4.60;4.20;;;19.60;99.90;;;;;;6143740;23;21216;-87
2022/09/04 07:05:54;;;;;;;5.63;4.77;;;19.60;99.90;;;;;;6137213;23;20389;-85
2022/09/04 07:08:34;;;;;;;4.60;4.20;;;19.80;99.90;;;;;;6133522;23;20508;-86
2022/09/04 07:11:14;;;;;;;5.10;4.60;;;20.00;99.90;;;;;;6143010;23;20439;-85
2022/09/04 07:14:16;;;;;;;4.33;3.93;;;20.30;99.90;;;;;;6146699;23;20400;-85
2022/09/04 07:16:52;;;;;;;5.10;4.60;;;20.50;99.90;;;;;;6151990;23;20392;-87
2022/09/04 07:20:02;;;;;;;4.90;4.27;;;22.00;99.90;;;;;;6151609;23;20429;-87
2022/09/04 07:22:47;;;;;;;5.87;4.40;;;23.40;99.90;;;;;;6139834;23;20452;-87
2022/09/04 07:25:22;;;;;;;4.67;4.27;;;24.20;99.90;;;;;;6146777;23;20398;-87
2022/09/04 07:28:05;;;;;;;4.57;4.17;;;23.90;99.90;;;;;;6140967;23;20462;-87
2022/09/04 07:30:36;;;;;;;4.67;4.23;;;23.90;99.90;;;;;;6132549;23;20389;-88
2022/09/04 07:33:10;;;;;;;4.80;4.40;;;25.40;99.90;;;;;;6134441;23;20398;-87
2022/09/04 07:35:42;;;;;;;4.70;3.90;;;26.00;99.90;;;;;;6126699;23;20415;-88
2022/09/04 07:38:17;;;;;;;4.50;4.10;;;25.40;99.90;;;;;;6126323;23;20763;-88
2022/09/04 07:40:52;;;;;;;4.33;3.97;;;24.70;99.90;;;;;;6127844;23;20726;-87
2022/09/04 07:43:24;;;;;;;4.10;3.80;;;24.20;99.90;;;;;;6128506;23;20401;-88
2022/09/04 07:45:57;;;;;;;3.80;3.50;;;24.10;99.90;;;;;;6126174;23;20395;-87
2022/09/04 07:48:28;;;;;;;5.20;4.00;;;23.90;99.90;;;;;;6124062;23;20500;-87
2022/09/04 07:51:08;;;;;;;4.53;3.80;;;23.70;99.90;;;;;;6098330;23;20421;-87
2022/09/04 07:53:52;;;;;;;4.33;4.03;;;24.00;99.90;;;;;;6124777;23;20407;-87
2022/09/04 07:56:28;;;;;;;5.43;4.00;;;24.10;99.90;;;;;;6124140;23;20400;-83
2022/09/04 07:59:24;;;;;;;4.40;4.00;;;24.00;99.90;;;;;;6125457;23;20397;-86
2022/09/04 08:02:13;;;;;;;4.00;3.70;;;23.40;99.90;;;;;;6132801;23;20397;-86
2022/09/04 08:05:15;;;;;;;4.23;3.93;;;22.60;99.90;;;;;;6130682;23;20395;-86
2022/09/04 08:08:09;;;;;;;5.07;4.67;;;22.00;99.90;;;;;;6130592;23;20522;-87
2022/09/04 08:10:41;;;;;;;4.30;3.90;;;21.40;99.90;;;;;;6124139;23;20931;-86
2022/09/04 08:13:22;;;;;;;4.50;4.20;;;21.10;99.90;;;;;;6135000;23;20488;-86
2022/09/04 08:15:57;;;;;;;4.43;4.03;;;21.60;99.90;;;;;;6142929;23;20432;-86
2022/09/04 08:18:57;;;;;;;5.50;3.80;;;21.90;99.90;;;;;;6133872;23;20551;-86
2022/09/04 08:21:29;;;;;;;4.80;4.33;;;21.90;99.90;;;;;;6130381;23;20886;-85
2022/09/04 08:24:28;;;;;;;6.73;4.50;;;21.80;99.90;;;;;;6130469;23;20453;-86
2022/09/04 08:27:04;;;;;;;4.63;3.53;;;21.90;99.90;;;;;;6149457;23;20460;-86
2022/09/04 08:29:42;;;;;;;6.57;3.83;;;22.00;99.90;;;;;;6149995;23;20387;-86
2022/09/04 08:32:22;;;;;;;4.00;3.70;;;22.00;99.90;;;;;;6133582;23;20463;-86
2022/09/04 08:35:04;;;;;;;3.83;3.53;;;22.00;99.90;;;;;;6127451;23;20396;-86
2022/09/04 08:37:42;;;;;;;4.80;3.53;;;23.10;99.90;;;;;;6128116;23;20447;-85
2022/09/04 08:40:52;;;;;;;3.53;3.20;;;24.80;99.90;;;;;;6128615;23;20424;-86
2022/09/04 08:43:33;;;;;;;5.37;3.23;;;27.30;99.90;;;;;;6132362;23;20419;-84
2022/09/04 08:46:47;;;;;;;3.23;2.93;;;28.60;96.00;;;;;;6137554;23;20393;-84
2022/09/04 08:49:52;;;;;;;3.40;3.10;;;30.50;92.20;;;;;;6129900;23;20402;-86
2022/09/04 08:53:04;;;;;;;2.47;2.27;;;32.40;82.00;;;;;;6128606;23;20409;-86
2022/09/04 08:55:45;;;;;;;3.00;2.77;;;33.20;73.20;;;;;;6133083;23;20418;-85
2022/09/04 08:58:41;;;;;;;4.83;2.77;;;33.00;71.80;;;;;;6138609;23;20431;-84
2022/09/04 09:01:41;;;;;;;3.30;2.30;;;34.00;68.50;;;;;;6135295;23;20398;-85
2022/09/04 09:04:35;;;;;;;3.13;2.73;;;33.90;64.60;;;;;;6137426;23;20400;-85
2022/09/04 09:07:28;;;;;;;2.80;2.60;;;35.70;61.40;;;;;;6132222;23;20455;-86
2022/09/04 09:10:31;;;;;;;2.60;2.40;;;35.80;58.70;;;;;;6123870;23;20442;-86
2022/09/04 09:13:31;;;;;;;3.10;2.47;;;34.40;59.20;;;;;;6134560;23;21004;-85
2022/09/04 09:16:21;;;;;;;2.37;2.17;;;34.50;61.40;;;;;;6150064;23;20405;-86
2022/09/04 09:19:19;;;;;;;3.57;2.30;;;36.50;57.40;;;;;;6147336;23;20753;-86
2022/09/04 09:21:54;;;;;;;4.20;2.40;;;36.50;55.30;;;;;;6133212;23;20434;-85
2022/09/04 09:24:45;;;;;;;2.63;2.43;;;37.00;54.30;;;;;;6130877;23;20386;-85
2022/09/04 09:27:46;;;;;;;2.77;2.57;;;36.30;54.00;;;;;;6127915;23;20459;-86
2022/09/04 09:30:17;;;;;;;2.67;2.30;;;36.10;56.40;;;;;;6048776;23;20920;-85
2022/09/04 09:33:36;;;;;;;2.07;1.87;;;36.60;55.40;;;;;;6045805;23;20407;-85
2022/09/04 09:36:26;;;;;;;2.67;2.03;;;36.90;53.90;;;;;;6129509;23;20426;-86
2022/09/04 09:39:25;;;;;;;2.40;2.20;;;37.20;53.40;;;;;;6114025;23;20476;-85
2022/09/04 09:42:15;;;;;;;3.60;2.40;;;36.70;52.50;;;;;;6127454;23;20412;-85
2022/09/04 09:45:27;;;;;;;2.73;2.47;;;37.20;51.70;;;;;;6127295;23;20473;-85
2022/09/04 09:48:21;;;;;;;2.37;2.17;;;37.70;50.00;;;;;;6132384;23;20467;-85
2022/09/04 09:51:24;;;;;;;2.63;2.03;;;38.20;51.20;;;;;;6142426;23;20425;-86
2022/09/04 09:54:13;;;;;;;5.27;2.03;;;39.60;48.40;;;;;;6142237;23;20395;-86
2022/09/04 09:57:22;;;;;;;2.43;2.23;;;38.80;47.30;;;;;;6128544;23;20392;-85
2022/09/04 10:00:06;;;;;;;2.23;2.03;;;39.60;46.60;;;;;;6137733;23;20399;-85
2022/09/04 10:03:08;;;;;;;2.50;2.30;;;41.40;43.90;;;;;;6154247;23;20401;-84
2022/09/04 10:06:26;;;;;;;1.93;1.83;;;42.60;41.60;;;;;;6153358;23;20408;-84
2022/09/04 10:09:33;;;;;;;3.97;1.97;;;43.40;40.30;;;;;;6144723;23;21058;-84
2022/09/04 10:12:39;;;;;;;2.10;1.73;;;43.90;37.80;;;;;;6129143;23;20923;-84
2022/09/04 10:15:47;;;;;;;1.93;1.73;;;43.80;37.30;;;;;;6107267;23;20412;-86
2022/09/04 10:18:46;;;;;;;2.20;2.00;;;40.10;40.30;;;;;;6132368;23;20427;-85
2022/09/04 10:21:40;;;;;;;2.27;1.93;;;38.10;44.20;;;;;;6109669;23;20421;-85
2022/09/04 10:24:39;;;;;;;3.93;1.70;;;38.60;43.80;;;;;;6127015;23;20431;-85
2022/09/04 10:27:50;;;;;;;2.47;2.00;;;39.00;42.90;;;;;;6126124;23;20500;-85
2022/09/04 10:30:19;;;;;;;2.30;2.10;;;38.90;43.20;;;;;;6121485;23;20810;-84
2022/09/04 10:33:25;;;;;;;2.40;2.20;;;39.00;42.20;;;;;;6132365;23;20411;-84
2022/09/04 10:36:14;;;;;;;3.73;2.20;;;40.10;41.30;;;;;;6129260;23;20730;-85
2022/09/04 10:42:06;;;;;;;1.73;1.40;;;42.30;37.30;;;;;;6127986;23;21108;-85
2022/09/04 10:44:58;;;;;;;2.13;1.50;;;41.60;38.00;;;;;;6127252;23;20393;-85
2022/09/04 10:47:51;;;;;;;2.00;1.60;;;41.80;37.00;;;;;;6121866;23;20455;-84
2022/09/04 10:50:27;;;;;;;1.70;1.53;;;41.40;36.20;;;;;;6126091;23;20459;-86
2022/09/04 10:53:35;;;;;;;2.60;1.80;;;39.30;38.50;;;;;;6127947;23;20724;-85
2022/09/04 10:56:15;;;;;;;3.97;1.80;;;36.90;41.40;;;;;;6121173;23;20483;-83
2022/09/04 10:59:03;;;;;;;4.63;1.87;;;34.70;44.40;;;;;;6126641;23;20486;-83
2022/09/04 11:01:57;;;;;;;1.73;1.60;;;33.30;47.40;;;;;;6127068;23;20395;-84
2022/09/04 11:04:47;;;;;;;2.63;2.10;;;32.20;48.80;;;;;;6142663;23;20376;-85
2022/09/04 11:07:35;;;;;;;2.03;1.40;;;33.50;49.10;;;;;;6150183;23;20429;-85
2022/09/04 11:10:41;;;;;;;1.80;1.70;;;36.40;44.20;;;;;;6151901;23;20396;-86
2022/09/04 11:13:37;;;;;;;2.07;1.53;;;39.20;39.80;;;;;;6107000;23;20419;-86
2022/09/04 11:16:40;;;;;;;1.40;1.30;;;40.70;37.50;;;;;;6142547;23;20399;-84
2022/09/04 11:19:42;;;;;;;1.90;1.33;;;42.60;34.40;;;;;;6140669;23;20393;-85
2022/09/04 11:22:54;;;;;;;1.83;1.33;;;43.20;33.10;;;;;;6150173;23;20444;-86
2022/09/04 11:26:04;;;;;;;2.20;2.03;;;43.30;32.20;;;;;;6123822;23;20411;-85
2022/09/04 11:32:01;;;;;;;2.67;1.60;;;43.10;31.20;;;;;;6125975;23;20416;-85
2022/09/04 11:35:12;;;;;;;3.07;1.17;;;43.50;31.20;;;;;;6127603;23;20400;-85
2022/09/04 11:38:07;;;;;;;1.53;1.30;;;43.40;30.80;;;;;;6147691;23;20468;-84
2022/09/04 11:40:57;;;;;;;2.90;1.87;;;43.00;31.40;;;;;;6142647;23;20393;-84
2022/09/04 11:43:43;;;;;;;2.37;1.50;;;42.50;31.90;;;;;;6126824;23;20871;-84
2022/09/04 11:46:31;;;;;;;1.63;1.30;;;40.50;32.80;;;;;;6127244;23;20458;-85
2022/09/04 11:49:24;;;;;;;2.00;1.60;;;41.30;33.20;;;;;;6127702;23;20433;-85
2022/09/04 11:52:07;;;;;;;2.30;1.87;;;40.20;33.50;;;;;;6125515;23;20752;-85
2022/09/04 11:55:17;;;;;;;2.30;1.70;;;40.30;34.40;;;;;;6124055;23;20392;-85
2022/09/04 11:57:58;;;;;;;2.00;1.33;;;41.00;34.00;;;;;;6125148;23;20425;-84
2022/09/04 12:00:25;;;;;;;2.33;2.00;;;40.20;35.00;;;;;;6159175;23;20745;-80
2022/09/04 12:03:20;;;;;;;1.70;1.40;;;40.70;34.50;;;;;;6167804;23;20405;-80
2022/09/04 12:06:13;;;;;;;1.57;1.43;;;40.80;33.20;;;;;;6167423;23;20404;-80
2022/09/04 12:09:08;;;;;;;1.67;1.57;;;39.30;34.60;;;;;;6166098;23;20481;-81
2022/09/04 12:11:53;;;;;;;2.83;1.53;;;38.00;36.40;;;;;;6167419;23;20407;-80
2022/09/04 12:14:43;;;;;;;1.40;1.20;;;37.00;37.50;;;;;;6171518;23;20393;-80
2022/09/04 12:17:46;;;;;;;1.97;1.87;;;36.10;38.70;;;;;;6172209;23;20405;-80
2022/09/04 12:20:44;;;;;;;1.50;1.40;;;37.30;37.70;;;;;;6176468;23;20453;-80
2022/09/04 12:23:36;;;;;;;2.90;1.50;;;36.80;38.40;;;;;;6172395;23;20411;-80
2022/09/04 12:26:48;;;;;;;1.30;1.20;;;37.80;36.20;;;;;;6175645;23;20399;-81
2022/09/04 12:29:43;;;;;;;1.77;1.60;;;36.80;36.70;;;;;;6024855;23;20455;-80
2022/09/04 12:32:55;;;;;;;9.33;2.30;;;35.20;39.10;;;;;;6137808;23;20461;-80
2022/09/04 12:35:55;;;;;;;2.10;1.60;;;33.80;42.00;;;;;;6172377;23;20424;-80
2022/09/04 12:38:50;;;;;;;2.17;1.60;;;33.60;42.40;;;;;;6162423;23;20410;-80
2022/09/04 12:41:20;;;;;;;2.13;1.30;;;35.40;40.70;;;;;;6163676;23;20419;-81
2022/09/04 12:44:03;;;;;;;1.93;1.17;;;35.50;38.10;;;;;;6171331;23;20409;-80
2022/09/04 12:46:49;;;;;;;1.60;1.50;;;35.70;38.40;;;;;;6170288;23;20391;-81
2022/09/04 12:49:41;;;;;;;1.33;1.17;;;36.70;38.90;;;;;;6170533;23;20454;-81
2022/09/04 12:52:20;;;;;;;1.63;1.30;;;38.50;35.60;;;;;;6169517;23;20394;-81
2022/09/04 12:55:02;;;;;;;1.57;1.33;;;40.10;34.70;;;;;;6168486;23;20395;-81
2022/09/04 12:57:39;;;;;;;1.90;1.30;;;41.60;33.30;;;;;;6168559;23;20422;-82
2022/09/04 13:00:09;;;;;;;2.10;1.43;;;42.20;31.60;;;;;;6167123;23;20435;-82
2022/09/04 13:02:52;;;;;;;2.17;1.57;;;41.80;31.70;;;;;;6168992;23;20403;-81
2022/09/04 13:05:42;;;;;;;3.13;1.30;;;43.10;31.80;;;;;;6170208;23;20396;-81
2022/09/04 13:08:18;;;;;;;3.40;1.90;;;44.10;29.30;;;;;;6169614;23;20459;-81
2022/09/04 13:10:56;;;;;;;2.10;1.63;;;43.60;29.80;;;;;;6172335;23;20392;-81
2022/09/04 13:13:32;;;;;;;2.07;1.57;;;44.10;29.40;;;;;;6169247;23;20398;-81
2022/09/04 13:16:07;;;;;;;2.47;1.67;;;42.20;30.00;;;;;;6174171;23;20515;-81
2022/09/04 13:18:46;;;;;;;2.90;1.70;;;40.20;32.80;;;;;;6179790;23;20382;-81
2022/09/04 13:21:24;;;;;;;1.67;1.57;;;39.70;33.50;;;;;;6174762;23;20486;-82
2022/09/04 13:24:04;;;;;;;2.00;1.40;;;39.50;34.10;;;;;;6170702;23;20380;-81
2022/09/04 13:26:44;;;;;;;3.07;1.70;;;39.00;33.20;;;;;;6170940;23;20395;-81
2022/09/04 13:29:24;;;;;;;2.00;1.80;;;39.30;33.50;;;;;;6170085;23;20453;-81
2022/09/04 13:32:04;;;;;;;5.03;4.40;;;39.60;33.20;;;;;;6171088;23;20422;-81
2022/09/04 13:34:47;;;;;;;1.90;1.60;;;39.80;33.70;;;;;;6149492;23;20407;-81
2022/09/04 13:37:25;;;;;;;1.93;1.67;;;40.40;32.60;;;;;;6177673;23;20381;-80
2022/09/04 13:40:23;;;;;;;1.63;1.53;;;40.30;32.40;;;;;;6181848;23;20445;-80
2022/09/04 13:43:24;;;;;;;1.63;1.53;;;40.30;32.10;;;;;;6183221;23;20392;-80
2022/09/04 13:45:58;;;;;;;1.97;1.77;;;38.60;33.80;;;;;;6180889;23;20418;-80
2022/09/04 13:48:37;;;;;;;1.93;1.80;;;37.00;36.70;;;;;;6181173;23;20489;-81
2022/09/04 13:51:09;;;;;;;2.20;1.80;;;36.20;38.00;;;;;;6173389;23;20401;-81
2022/09/04 13:53:45;;;;;;;2.63;1.97;;;35.90;38.00;;;;;;6172761;23;20400;-81
2022/09/04 13:56:18;;;;;;;2.40;1.97;;;35.60;38.70;;;;;;6170976;23;20422;-82
2022/09/04 13:58:50;;;;;;;1.80;1.50;;;35.20;38.80;;;;;;6169106;23;20462;-80
2022/09/04 14:01:24;;;;;;;2.20;1.90;;;34.60;39.70;;;;;;6170912;23;20389;-80
2022/09/04 14:03:55;;;;;;;2.30;1.70;;;34.20;40.30;;;;;;6173983;23;20402;-81
2022/09/04 14:06:24;;;;;;;2.63;1.87;;;34.60;40.20;;;;;;6176021;23;20408;-80
2022/09/04 14:08:54;;;;;;;1.73;1.47;;;34.70;39.80;;;;;;6173914;23;20454;-80
2022/09/04 14:11:44;;;;;;;1.90;1.70;;;34.50;39.80;;;;;;6170296;23;20414;-80
2022/09/04 14:14:47;;;;;;;1.77;1.57;;;33.80;39.80;;;;;;6171112;23;20398;-81
2022/09/04 14:17:25;;;;;;;2.30;2.10;;;32.50;41.70;;;;;;6170536;23;20398;-80
2022/09/04 14:20:00;;;;;;;2.10;1.80;;;31.60;43.60;;;;;;6169743;23;20433;-80